createdAt,value
2023-05-15T00:00:35.013Z,13.99
2023-05-15T00:03:02.537Z,14.13
2023-05-15T00:05:29.354Z,14.01
2023-05-15T00:07:56.150Z,13.99
2023-05-15T00:10:22.877Z,13.96
2023-05-15T00:12:50.298Z,13.93
2023-05-15T00:15:17.223Z,14.02
2023-05-15T00:17:43.851Z,14.13
2023-05-15T00:20:11.352Z,14.08
2023-05-15T00:22:38.208Z,14.07
2023-05-15T00:25:05.210Z,14.12
2023-05-15T00:27:31.843Z,14.34
2023-05-15T00:29:58.523Z,13.90
2023-05-15T00:32:25.182Z,13.95
2023-05-15T00:34:51.945Z,14.04
2023-05-15T00:37:19.557Z,13.98
2023-05-15T00:39:46.232Z,14.10
2023-05-15T00:42:13.530Z,14.06
2023-05-15T00:44:41.498Z,13.94
2023-05-15T00:47:10.858Z,14.04
2023-05-15T00:49:38.773Z,13.82
2023-05-15T00:52:08.412Z,14.10
2023-05-15T00:54:35.414Z,13.99
2023-05-15T00:57:03.885Z,14.06
2023-05-15T00:59:31.873Z,13.82
2023-05-15T01:01:58.553Z,13.78
2023-05-15T01:04:25.585Z,13.76
2023-05-15T01:06:54.068Z,13.93
2023-05-15T01:09:23.692Z,13.77
2023-05-15T01:11:53.696Z,13.78
2023-05-15T01:14:20.487Z,13.99
2023-05-15T01:16:47.284Z,13.88
2023-05-15T01:19:14.490Z,13.93
2023-05-15T01:21:59.874Z,13.97
2023-05-15T01:24:55.783Z,13.96
2023-05-15T01:27:51.452Z,14.05
2023-05-15T01:30:30.153Z,14.14
2023-05-15T01:33:17.338Z,14.14
2023-05-15T01:36:08.082Z,14.27
2023-05-15T01:38:42.991Z,14.20
2023-05-15T01:41:11.798Z,14.18
2023-05-15T01:43:42.272Z,13.92
2023-05-15T01:46:11.565Z,13.93
2023-05-15T01:48:40.768Z,14.16
2023-05-15T01:51:10.278Z,14.17
2023-05-15T01:53:38.807Z,14.15
2023-05-15T01:56:08.230Z,14.13
2023-05-15T01:58:38.444Z,14.15
2023-05-15T02:01:06.081Z,14.15
2023-05-15T02:03:36.733Z,13.75
2023-05-15T02:06:05.044Z,13.70
2023-05-15T02:08:35.124Z,13.90
2023-05-15T02:11:03.384Z,13.92
2023-05-15T02:13:31.641Z,13.80
2023-05-15T02:15:58.540Z,13.63
2023-05-15T02:18:25.480Z,13.57
2023-05-15T02:20:52.145Z,13.64
2023-05-15T02:23:20.706Z,13.49
2023-05-15T02:26:07.954Z,13.41
2023-05-15T02:28:43.352Z,13.55
2023-05-15T02:31:23.768Z,13.36
2023-05-15T02:34:13.139Z,13.49
2023-05-15T02:36:44.621Z,13.70
2023-05-15T02:39:13.424Z,13.84
2023-05-15T02:41:40.497Z,13.80
2023-05-15T02:44:08.809Z,13.57
2023-05-15T02:46:37.323Z,13.82
2023-05-15T02:49:04.147Z,13.81
2023-05-15T02:51:31.196Z,13.80
2023-05-15T02:54:01.052Z,13.81
2023-05-15T02:56:27.573Z,13.80
2023-05-15T02:58:54.524Z,13.63
2023-05-15T03:01:21.372Z,13.59
2023-05-15T03:03:48.290Z,13.63
2023-05-15T03:06:14.995Z,13.35
2023-05-15T03:08:41.955Z,13.49
2023-05-15T03:11:08.522Z,13.68
2023-05-15T03:13:35.178Z,13.56
2023-05-15T03:16:01.868Z,13.36
2023-05-15T03:18:28.546Z,13.27
2023-05-15T03:20:55.191Z,13.21
2023-05-15T03:23:21.876Z,13.57
2023-05-15T03:25:48.565Z,13.38
2023-05-15T03:28:15.236Z,13.69
2023-05-15T03:30:44.736Z,13.54
2023-05-15T03:33:11.392Z,13.63
2023-05-15T03:35:38.143Z,13.76
2023-05-15T03:38:04.730Z,13.69
2023-05-15T03:40:31.317Z,13.80
2023-05-15T03:42:58.470Z,13.87
2023-05-15T03:45:25.218Z,13.89
2023-05-15T03:47:52.026Z,13.85
2023-05-15T03:50:19.863Z,13.95
2023-05-15T03:52:47.165Z,13.58
2023-05-15T03:55:13.846Z,13.53
2023-05-15T03:57:41.721Z,13.81
2023-05-15T04:00:12.459Z,13.87
2023-05-15T04:02:40.373Z,13.93
2023-05-15T04:05:07.938Z,13.67
2023-05-15T04:07:37.950Z,13.83
2023-05-15T04:10:05.087Z,13.63
2023-05-15T04:12:34.231Z,13.94
2023-05-15T04:15:24.480Z,13.68
2023-05-15T04:17:53.678Z,13.54
2023-05-15T04:20:23.129Z,13.81
2023-05-15T04:22:50.757Z,13.64
2023-05-15T04:25:18.209Z,13.65
2023-05-15T04:27:45.054Z,13.96
2023-05-15T04:30:14.100Z,14.05
2023-05-15T04:32:41.143Z,14.20
2023-05-15T04:35:10.549Z,14.16
2023-05-15T04:37:38.549Z,13.99
2023-05-15T04:40:08.830Z,14.24
2023-05-15T04:42:39.544Z,14.03
2023-05-15T04:45:07.350Z,14.01
2023-05-15T04:47:34.316Z,13.93
2023-05-15T04:50:03.109Z,13.93
2023-05-15T04:52:30.001Z,13.83
2023-05-15T04:54:56.615Z,13.94
2023-05-15T04:57:25.862Z,14.02
2023-05-15T04:59:52.802Z,14.09
2023-05-15T05:02:23.513Z,14.30
2023-05-15T05:04:50.530Z,14.60
2023-05-15T05:07:17.311Z,14.53
2023-05-15T05:09:44.500Z,14.47
2023-05-15T05:12:11.276Z,14.76
2023-05-15T05:14:40.501Z,14.45
2023-05-15T05:17:07.240Z,14.58
2023-05-15T05:19:33.936Z,14.76
2023-05-15T05:22:04.680Z,14.64
2023-05-15T05:24:37.724Z,14.79
2023-05-15T05:27:05.209Z,14.90
2023-05-15T05:29:32.637Z,14.54
2023-05-15T05:31:59.371Z,14.96
2023-05-15T05:34:26.030Z,14.87
2023-05-15T05:36:52.682Z,14.94
2023-05-15T05:39:19.452Z,14.84
2023-05-15T05:41:46.058Z,14.98
2023-05-15T05:44:12.881Z,14.96
2023-05-15T05:46:41.167Z,14.81
2023-05-15T05:49:07.770Z,15.07
2023-05-15T05:51:37.279Z,15.22
2023-05-15T05:54:04.294Z,15.27
2023-05-15T05:56:31.478Z,15.21
2023-05-15T05:58:59.652Z,15.10
2023-05-15T06:01:27.009Z,15.19
2023-05-15T06:03:53.850Z,15.30
2023-05-15T06:06:20.524Z,15.09
2023-05-15T06:08:47.076Z,15.08
2023-05-15T06:11:13.790Z,15.15
2023-05-15T06:13:41.088Z,15.22
2023-05-15T06:16:07.834Z,15.36
2023-05-15T06:18:34.504Z,15.45
2023-05-15T06:21:04.048Z,15.44
2023-05-15T06:23:30.718Z,15.83
2023-05-15T06:25:57.445Z,15.86
2023-05-15T06:28:27.354Z,15.82
2023-05-15T06:30:53.988Z,15.85
2023-05-15T06:33:23.735Z,15.58
2023-05-15T06:35:50.830Z,15.44
2023-05-15T06:38:17.752Z,15.78
2023-05-15T06:40:44.401Z,15.77
2023-05-15T06:43:11.164Z,15.88
2023-05-15T06:45:37.809Z,15.83
2023-05-15T06:48:07.221Z,15.60
2023-05-15T06:50:33.857Z,15.73
2023-05-15T06:53:01.303Z,15.64
2023-05-15T06:55:28.103Z,15.73
2023-05-15T06:57:54.862Z,15.75
2023-05-15T07:00:21.599Z,15.89
2023-05-15T07:02:48.308Z,15.98
2023-05-15T07:05:15.212Z,15.97
2023-05-15T07:07:42.809Z,15.75
2023-05-15T07:10:09.786Z,15.90
2023-05-15T07:12:36.554Z,15.99
2023-05-15T07:15:03.695Z,16.16
2023-05-15T07:17:33.615Z,16.18
2023-05-15T07:20:00.325Z,16.11
2023-05-15T07:22:28.060Z,16.11
2023-05-15T07:24:54.947Z,16.17
2023-05-15T07:27:21.538Z,16.22
2023-05-15T07:29:48.144Z,16.22
2023-05-15T07:32:14.825Z,16.16
2023-05-15T07:34:42.754Z,15.85
2023-05-15T07:37:09.943Z,16.35
2023-05-15T07:39:36.765Z,16.05
2023-05-15T07:42:03.479Z,16.17
2023-05-15T07:44:30.257Z,16.38
2023-05-15T07:46:57.011Z,16.13
2023-05-15T07:49:23.613Z,16.11
2023-05-15T07:51:50.392Z,16.48
2023-05-15T07:54:17.011Z,16.24
2023-05-15T07:56:43.998Z,16.69
2023-05-15T07:59:10.793Z,16.74
2023-05-15T08:01:37.437Z,16.66
2023-05-15T08:04:08.473Z,16.54
2023-05-15T08:06:38.190Z,16.83
2023-05-15T08:09:04.863Z,16.59
2023-05-15T08:11:33.782Z,16.64
2023-05-15T08:14:00.696Z,16.66
2023-05-15T08:16:30.086Z,16.23
2023-05-15T08:19:01.605Z,16.44
2023-05-15T08:21:28.401Z,16.17
2023-05-15T08:23:55.048Z,15.89
2023-05-15T08:26:21.832Z,16.34
2023-05-15T08:28:48.553Z,15.99
2023-05-15T08:31:15.231Z,16.90
2023-05-15T08:33:41.942Z,17.01
2023-05-15T08:36:08.928Z,17.03
2023-05-15T08:38:35.644Z,17.36
2023-05-15T08:41:36.320Z,17.18
2023-05-15T08:44:09.405Z,17.66
2023-05-15T08:46:36.569Z,17.72
2023-05-15T08:49:13.101Z,16.92
2023-05-15T08:51:39.919Z,16.84
2023-05-15T08:54:10.267Z,16.90
2023-05-15T08:56:39.493Z,17.16
2023-05-15T08:59:06.432Z,16.97
2023-05-15T09:01:34.232Z,16.73
2023-05-15T09:04:01.283Z,16.95
2023-05-15T09:06:28.539Z,17.00
2023-05-15T09:08:57.680Z,17.64
2023-05-15T09:11:25.960Z,17.52
2023-05-15T09:13:53.613Z,17.44
2023-05-15T09:16:21.602Z,17.71
2023-05-15T09:18:50.010Z,17.65
2023-05-15T09:21:26.780Z,17.70
2023-05-15T09:24:17.199Z,17.58
2023-05-15T09:26:46.903Z,17.55
2023-05-15T09:29:18.085Z,17.21
2023-05-15T09:31:48.775Z,16.90
2023-05-15T09:34:18.393Z,16.94
2023-05-15T09:36:45.123Z,17.54
2023-05-15T09:39:12.312Z,17.65
2023-05-15T09:41:43.201Z,17.54
2023-05-15T09:44:24.869Z,17.92
2023-05-15T09:46:52.056Z,17.91
2023-05-15T09:49:19.900Z,17.73
2023-05-15T09:51:48.754Z,17.71
2023-05-15T09:54:17.349Z,17.95
2023-05-15T09:56:47.742Z,17.74
2023-05-15T09:59:16.410Z,17.95
2023-05-15T10:01:47.670Z,17.86
2023-05-15T10:04:14.872Z,17.71
2023-05-15T10:06:48.477Z,17.75
2023-05-15T10:09:15.874Z,17.51
2023-05-15T10:11:44.136Z,17.40
2023-05-15T10:14:13.684Z,16.77
2023-05-15T10:16:41.209Z,17.10
2023-05-15T10:19:10.700Z,17.13
2023-05-15T10:21:41.693Z,17.31
2023-05-15T10:24:08.812Z,17.39
2023-05-15T10:26:40.340Z,17.28
2023-05-15T10:29:18.868Z,17.20
2023-05-15T10:31:48.851Z,16.99
2023-05-15T10:34:16.435Z,16.99
2023-05-15T10:36:43.611Z,16.90
2023-05-15T10:39:10.579Z,16.82
2023-05-15T10:41:39.804Z,16.62
2023-05-15T10:44:07.239Z,16.71
2023-05-15T10:46:36.199Z,17.01
2023-05-15T10:49:03.279Z,17.02
2023-05-15T10:51:32.914Z,16.95
2023-05-15T10:54:03.691Z,16.67
2023-05-15T10:56:32.217Z,16.64
2023-05-15T10:59:06.403Z,16.54
2023-05-15T11:01:35.459Z,16.53
2023-05-15T11:04:07.439Z,16.54
2023-05-15T11:06:35.001Z,16.62
2023-05-15T11:09:27.638Z,16.61
2023-05-15T11:11:57.403Z,16.42
2023-05-15T11:14:25.612Z,16.39
2023-05-15T11:16:55.062Z,16.50
2023-05-15T11:19:32.425Z,16.59
2023-05-15T11:22:00.741Z,16.49
2023-05-15T11:24:32.104Z,16.64
2023-05-15T11:27:03.750Z,16.58
2023-05-15T11:29:31.610Z,16.59
2023-05-15T11:31:58.626Z,16.87
2023-05-15T11:34:35.035Z,16.83
2023-05-15T11:37:04.555Z,16.85
2023-05-15T11:39:31.335Z,16.78
2023-05-15T11:42:11.351Z,16.55
2023-05-15T11:44:38.215Z,16.48
2023-05-15T11:47:05.161Z,16.46
2023-05-15T11:49:31.879Z,16.38
2023-05-15T11:52:00.687Z,16.30
2023-05-15T11:54:28.026Z,16.73
2023-05-15T11:56:57.527Z,16.72
2023-05-15T11:59:27.046Z,16.95
2023-05-15T12:01:53.676Z,16.84
2023-05-15T12:04:20.823Z,17.18
2023-05-15T12:06:49.607Z,16.80
2023-05-15T12:09:21.778Z,16.96
2023-05-15T12:11:53.030Z,17.12
2023-05-15T12:14:35.693Z,16.73
2023-05-15T12:17:04.304Z,16.75
2023-05-15T12:19:31.547Z,17.05
2023-05-15T12:21:58.202Z,17.33
2023-05-15T12:24:28.960Z,17.01
2023-05-15T12:26:57.469Z,17.22
2023-05-15T12:29:25.787Z,17.22
2023-05-15T12:31:53.988Z,17.24
2023-05-15T12:34:21.855Z,17.57
2023-05-15T12:36:48.501Z,17.33
2023-05-15T12:39:15.161Z,17.20
2023-05-15T12:41:41.902Z,17.53
2023-05-15T12:44:18.509Z,17.56
2023-05-15T12:46:46.437Z,17.46
2023-05-15T12:49:13.310Z,17.01
2023-05-15T12:51:43.938Z,16.85
2023-05-15T12:54:20.678Z,16.91
2023-05-15T12:56:48.615Z,17.08
2023-05-15T12:59:15.387Z,17.04
2023-05-15T13:01:45.137Z,16.94
2023-05-15T13:04:11.931Z,17.01
2023-05-15T13:06:46.263Z,16.84
2023-05-15T13:09:13.929Z,17.02
2023-05-15T13:11:45.095Z,16.82
2023-05-15T13:14:17.376Z,17.25
2023-05-15T13:16:47.051Z,16.95
2023-05-15T13:19:14.265Z,16.77
2023-05-15T13:21:41.198Z,17.29
2023-05-15T13:24:11.094Z,17.30
2023-05-15T13:26:37.752Z,17.06
2023-05-15T13:29:04.788Z,17.06
2023-05-15T13:31:32.214Z,17.28
2023-05-15T13:33:58.893Z,17.35
2023-05-15T13:36:25.589Z,17.21
2023-05-15T13:38:52.312Z,17.35
2023-05-15T13:41:19.120Z,17.06
2023-05-15T13:43:47.874Z,17.18
2023-05-15T13:46:14.576Z,17.13
2023-05-15T13:48:41.247Z,17.05
2023-05-15T13:51:07.974Z,17.15
2023-05-15T13:53:34.559Z,17.02
2023-05-15T13:56:03.637Z,16.78
2023-05-15T13:58:30.573Z,17.00
2023-05-15T14:00:57.314Z,17.13
2023-05-15T14:06:14.204Z,17.20
2023-05-15T14:08:40.813Z,17.03
2023-05-15T14:11:07.486Z,17.20
2023-05-15T14:13:34.361Z,17.20
2023-05-15T14:16:01.049Z,17.38
2023-05-15T14:18:28.632Z,17.36
2023-05-15T14:20:57.339Z,17.30
2023-05-15T14:23:24.078Z,17.07
2023-05-15T14:25:50.756Z,16.95
2023-05-15T14:28:17.393Z,17.06
2023-05-15T14:30:44.021Z,17.15
2023-05-15T14:33:10.788Z,17.11
2023-05-15T14:35:38.524Z,17.11
2023-05-15T14:38:05.353Z,16.75
2023-05-15T14:40:31.988Z,16.83
2023-05-15T14:42:58.604Z,16.79
2023-05-15T14:45:25.579Z,16.83
2023-05-15T14:47:52.466Z,16.75
2023-05-15T14:50:19.213Z,16.61
2023-05-15T14:52:46.486Z,16.39
2023-05-15T14:55:13.198Z,16.28
2023-05-15T14:57:39.863Z,16.38
2023-05-15T15:00:07.262Z,16.32
2023-05-15T15:02:34.208Z,16.00
2023-05-15T15:05:01.136Z,15.75
2023-05-15T15:07:30.686Z,15.79
2023-05-15T15:09:58.339Z,15.97
2023-05-15T15:12:25.050Z,15.91
2023-05-15T15:14:51.678Z,16.02
2023-05-15T15:17:18.549Z,15.71
2023-05-15T15:19:45.205Z,15.79
2023-05-15T15:22:14.972Z,15.61
2023-05-15T15:24:41.456Z,15.57
2023-05-15T15:27:11.272Z,15.83
2023-05-15T15:29:37.836Z,15.84
2023-05-15T15:32:04.671Z,16.08
2023-05-15T15:34:31.438Z,15.55
2023-05-15T15:37:00.366Z,15.86
2023-05-15T15:39:26.959Z,15.52
2023-05-15T15:41:54.498Z,15.65
2023-05-15T15:44:21.175Z,15.51
2023-05-15T15:46:47.887Z,15.61
2023-05-15T15:49:16.646Z,15.54
2023-05-15T15:51:45.529Z,15.45
2023-05-15T15:54:12.156Z,15.26
2023-05-15T15:56:38.811Z,15.27
2023-05-15T15:59:05.635Z,15.25
2023-05-15T16:01:32.953Z,15.42
2023-05-15T16:03:59.691Z,15.48
2023-05-15T16:06:26.308Z,15.47
2023-05-15T16:08:53.037Z,15.62
2023-05-15T16:11:21.604Z,15.42
2023-05-15T16:13:48.275Z,15.62
2023-05-15T16:16:14.948Z,15.70
2023-05-15T16:18:42.056Z,15.58
2023-05-15T16:21:09.966Z,15.65
2023-05-15T16:23:38.033Z,15.41
2023-05-15T16:26:05.355Z,15.36
2023-05-15T16:28:32.221Z,15.44
2023-05-15T16:30:59.139Z,15.46
2023-05-15T16:33:25.989Z,15.48
2023-05-15T16:35:52.821Z,15.56
2023-05-15T16:38:19.945Z,15.31
2023-05-15T16:40:46.818Z,15.50
2023-05-15T16:43:14.056Z,15.32
2023-05-15T16:45:40.762Z,15.23
2023-05-15T16:48:07.870Z,14.94
2023-05-15T16:50:37.992Z,15.12
2023-05-15T16:53:05.156Z,14.97
2023-05-15T16:55:33.160Z,14.87
2023-05-15T16:57:59.905Z,14.76
2023-05-15T17:00:27.017Z,14.70
2023-05-15T17:02:54.609Z,14.78
2023-05-15T17:05:21.464Z,14.79
2023-05-15T17:07:48.075Z,14.92
2023-05-15T17:10:14.637Z,14.86
2023-05-15T17:12:41.495Z,14.99
2023-05-15T17:15:08.436Z,14.74
2023-05-15T17:17:35.104Z,14.61
2023-05-15T17:20:03.257Z,14.65
2023-05-15T17:22:30.127Z,14.59
2023-05-15T17:24:56.809Z,14.62
2023-05-15T17:27:24.556Z,14.49
2023-05-15T17:29:51.903Z,14.53
2023-05-15T17:32:19.162Z,14.49
2023-05-15T17:34:46.851Z,14.49
2023-05-15T17:37:13.969Z,14.50
2023-05-15T17:39:40.733Z,14.53
2023-05-15T17:42:07.464Z,14.46
2023-05-15T17:44:34.141Z,14.38
2023-05-15T17:47:00.989Z,14.46
2023-05-15T17:49:28.052Z,14.30
2023-05-15T17:51:54.722Z,14.46
2023-05-15T17:54:21.422Z,14.53
2023-05-15T17:56:49.272Z,14.43
2023-05-15T17:59:16.121Z,14.40
2023-05-15T18:01:42.876Z,14.42
2023-05-15T18:04:09.738Z,14.34
2023-05-15T18:06:36.734Z,14.29
2023-05-15T18:09:05.198Z,14.36
2023-05-15T18:11:31.930Z,14.47
2023-05-15T18:13:58.541Z,14.57
2023-05-15T18:16:25.145Z,14.62
2023-05-15T18:18:54.860Z,14.39
2023-05-15T18:21:21.580Z,14.34
2023-05-15T18:23:48.438Z,14.35
2023-05-15T18:26:15.067Z,14.35
2023-05-15T18:28:41.675Z,14.45
2023-05-15T18:31:08.500Z,14.47
2023-05-15T18:33:35.163Z,14.48
2023-05-15T18:36:01.784Z,14.45
2023-05-15T18:38:29.039Z,14.33
2023-05-15T18:40:55.621Z,14.22
2023-05-15T18:43:22.340Z,14.49
2023-05-15T18:45:49.022Z,14.41
2023-05-15T18:48:15.734Z,14.16
2023-05-15T18:50:42.713Z,14.47
2023-05-15T18:53:09.460Z,14.55
2023-05-15T18:55:36.129Z,14.45
2023-05-15T18:58:02.803Z,14.41
2023-05-15T19:00:38.130Z,14.33
2023-05-15T19:03:06.543Z,14.35
2023-05-15T19:05:34.258Z,14.49
2023-05-15T19:08:01.427Z,14.37
2023-05-15T19:10:29.635Z,14.19
2023-05-15T19:12:57.181Z,14.11
2023-05-15T19:15:25.136Z,14.13
2023-05-15T19:17:52.045Z,14.19
2023-05-15T19:20:19.064Z,14.22
2023-05-15T19:22:46.291Z,14.30
2023-05-15T19:25:13.104Z,14.25
2023-05-15T19:27:39.847Z,14.38
2023-05-15T19:30:07.201Z,14.28
2023-05-15T19:32:34.300Z,14.41
2023-05-15T19:35:01.930Z,14.41
2023-05-15T19:37:30.163Z,14.46
2023-05-15T19:39:57.209Z,14.41
2023-05-15T19:42:23.995Z,14.40
2023-05-15T19:44:50.675Z,14.26
2023-05-15T19:47:21.347Z,14.16
2023-05-15T19:49:48.167Z,14.19
2023-05-15T19:52:16.302Z,14.28
2023-05-15T19:54:42.913Z,14.21
2023-05-15T19:57:09.558Z,14.25
2023-05-15T19:59:36.158Z,14.19
2023-05-15T20:02:03.035Z,14.20
2023-05-15T20:04:29.904Z,14.08
2023-05-15T20:06:56.564Z,14.29
2023-05-15T20:09:23.159Z,14.32
2023-05-15T20:11:49.761Z,14.23
2023-05-15T20:14:16.652Z,14.28
2023-05-15T20:16:43.585Z,14.35
2023-05-15T20:19:11.212Z,14.20
2023-05-15T20:21:38.942Z,14.35
2023-05-15T20:24:06.114Z,14.39
2023-05-15T20:26:32.911Z,14.19
2023-05-15T20:28:59.604Z,14.33
2023-05-15T20:31:26.316Z,14.29
2023-05-15T20:33:53.057Z,14.25
2023-05-15T20:36:20.223Z,14.08
2023-05-15T20:38:46.894Z,14.26
2023-05-15T20:41:13.525Z,14.23
2023-05-15T20:43:40.136Z,14.20
2023-05-15T20:46:09.238Z,14.22
2023-05-15T20:48:36.476Z,14.08
2023-05-15T20:51:03.304Z,14.11
2023-05-15T20:53:29.993Z,14.22
2023-05-15T20:55:56.692Z,14.34
2023-05-15T20:58:23.320Z,14.33
2023-05-15T21:00:50.017Z,14.11
2023-05-15T21:03:16.740Z,14.17
2023-05-15T21:05:43.391Z,14.25
2023-05-15T21:08:09.986Z,14.13
2023-05-15T21:10:36.612Z,14.12
2023-05-15T21:13:03.587Z,14.08
2023-05-15T21:15:30.355Z,14.09
2023-05-15T21:17:59.143Z,13.98
2023-05-15T21:20:28.732Z,14.34
2023-05-15T21:22:55.534Z,14.35
2023-05-15T21:25:22.236Z,14.34
2023-05-15T21:27:51.945Z,14.38
2023-05-15T21:30:18.957Z,14.35
2023-05-15T21:32:45.745Z,14.33
2023-05-15T21:35:12.365Z,14.27
2023-05-15T21:37:39.066Z,14.29
2023-05-15T21:40:06.757Z,14.28
2023-05-15T21:42:33.373Z,14.23
2023-05-15T21:45:00.046Z,14.21
2023-05-15T21:47:26.702Z,14.20
2023-05-15T21:49:53.330Z,14.17
2023-05-15T21:52:19.987Z,14.19
2023-05-15T21:54:46.619Z,14.24
2023-05-15T21:57:13.286Z,14.21
2023-05-15T21:59:40.173Z,14.00
2023-05-15T22:02:07.503Z,14.05
2023-05-15T22:04:34.380Z,14.11
2023-05-15T22:07:01.024Z,14.18
2023-05-15T22:09:27.660Z,14.15
2023-05-15T22:11:54.255Z,14.15
2023-05-15T22:14:21.982Z,14.13
2023-05-15T22:16:48.688Z,14.07
2023-05-15T22:19:31.689Z,14.09
2023-05-15T22:22:00.911Z,14.05
2023-05-15T22:24:27.602Z,13.93
2023-05-15T22:26:54.997Z,13.93
2023-05-15T22:29:21.936Z,13.94
2023-05-15T22:31:50.678Z,14.07
2023-05-15T22:34:17.463Z,14.04
2023-05-15T22:36:44.077Z,13.92
2023-05-15T22:39:11.668Z,14.05
2023-05-15T22:41:38.318Z,14.01
2023-05-15T22:44:05.160Z,14.06
2023-05-15T22:46:31.831Z,14.03
2023-05-15T22:49:00.504Z,14.10
2023-05-15T22:51:27.270Z,14.11
2023-05-15T22:53:53.858Z,14.12
2023-05-15T22:56:21.462Z,14.22
2023-05-15T22:58:48.243Z,14.16
2023-05-15T23:01:14.884Z,14.18
2023-05-15T23:03:41.665Z,14.12
2023-05-15T23:06:08.289Z,14.07
2023-05-15T23:08:34.958Z,14.16
2023-05-15T23:11:03.998Z,13.99
2023-05-15T23:13:30.676Z,14.02
2023-05-15T23:15:57.301Z,14.10
2023-05-15T23:18:24.024Z,14.03
2023-05-15T23:20:50.727Z,14.02
2023-05-15T23:23:17.419Z,14.12
2023-05-15T23:25:44.043Z,14.12
2023-05-15T23:28:11.009Z,13.95
2023-05-15T23:30:37.657Z,13.99
2023-05-15T23:33:04.346Z,14.00
2023-05-15T23:35:31.471Z,13.99
2023-05-15T23:37:58.147Z,14.05
2023-05-15T23:40:25.124Z,13.99
2023-05-15T23:42:51.988Z,13.94
2023-05-15T23:45:18.825Z,14.00
2023-05-15T23:47:46.731Z,13.94
2023-05-15T23:50:16.269Z,13.85
2023-05-15T23:52:42.853Z,14.04
2023-05-15T23:55:09.914Z,13.98
2023-05-15T23:57:36.490Z,13.99
